This is the latest recevied weather packets stored in our database for station/object N9JXN-13. If no packets are shown the sender has not sent any weather packets the latest 10 day(s).
| Time | Temp. | Humidity | Pressure | Rain* | Wind** | Luminosity | Snow |
|---|---|---|---|---|---|---|---|
| 1777525818 | 5° C | 88% | 1016.8 hPa | 0 mm | - | 0 W/m² | - |
| 1777525517 | 5.56° C | 88% | 1016.7 hPa | 0 mm | - | 0 W/m² | - |
| 1777522217 | 6.11° C | 85% | 1016.8 hPa | 0 mm | - | 0 W/m² | - |
| 1777518617 | 7.22° C | 83% | 1016.9 hPa | 0 mm | - | 0 W/m² | - |
| 1777518018 | 7.22° C | 81% | 1016.9 hPa | 0 mm | - | 0 W/m² | - |
| 1777515317 | 8.33° C | 76% | 1016.4 hPa | 0 mm | - | 0 W/m² | - |
| 1777510518 | 10.56° C | 65% | 1015.7 hPa | 0 mm | - | 0 W/m² | - |
| 1777501217 | 13.89° C | 41% | 1013.7 hPa | 0 mm | - | 84 W/m² | - |
| 1777500617 | 14.44° C | 40% | 1013.6 hPa | 0 mm | - | 207 W/m² | - |
| 1777498817 | 14.44° C | 41% | 1013.5 hPa | 0 mm | - | 181 W/m² | - |
| 1777497319 | 15° C | 40% | 1013.3 hPa | 0 mm | - | 146 W/m² | - |
| 1777496718 | 15.56° C | 38% | 1013.3 hPa | 0 mm | - | 186 W/m² | - |
| 1777496118 | 14.44° C | 40% | 1013.4 hPa | 0 mm | - | 199 W/m² | - |
| 1777492517 | 15° C | 49% | 1013.5 hPa | 0 mm | - | 239 W/m² | - |
| 1777491618 | 14.44° C | 51% | 1013.7 hPa | 0 mm | - | 399 W/m² | - |
| 1777491017 | 14.44° C | 51% | 1013.6 hPa | 0 mm | - | 156 W/m² | - |
| 1777487117 | 15.56° C | 53% | 1013.4 hPa | 0 mm | - | 257 W/m² | - |
| 1777485617 | 15.56° C | 54% | 1013.4 hPa | 0 mm | - | 1000 W/m² | - |
| 1777485318 | 15.56° C | 56% | 1013.5 hPa | 0 mm | - | 1088 W/m² | - |
| 1777484418 | 14.44° C | 59% | 1013.4 hPa | 0 mm | - | 1011 W/m² | - |
| 1777483817 | 16.11° C | 55% | 1013.3 hPa | 0 mm | - | 287 W/m² | - |
| 1777482917 | 15° C | 57% | 1013.3 hPa | 0 mm | - | 239 W/m² | - |
| 1777480517 | 15.56° C | 57% | 1013.4 hPa | 0 mm | - | 972 W/m² | - |
| 1777479317 | 15° C | 59% | 1013.4 hPa | 0 mm | - | 707 W/m² | - |
| 1777479017 | 15° C | 59% | 1013.4 hPa | 0 mm | - | 700 W/m² | - |
* Rain latest hour (hover to see other rain measurements)
** Current wind speed in m/s (hover to see current wind gust speed)